Time;durP1;ratioP1;P1;durP2;ratioP2;P2;SDS_P1;SDS_P2;PMS_P1;PMS_P2;Temp;Humidity;BMP_temperature;BMP_pressure;BME280_temperature;BME280_humidity;BME280_pressure;Samples;Min_cycle;Max_cycle;Signal;HPM_P1;HPM_P2
2024/01/11 00:00:15;;;;;;;47.50;22.13;;;2.10;65.80;;;;;;4979761;28;20106;-67
2024/01/11 00:02:41;;;;;;;44.15;21.77;;;2.10;66.00;;;;;;4979178;28;20030;-67
2024/01/11 00:05:07;;;;;;;42.30;19.65;;;2.10;65.80;;;;;;4979234;28;20033;-71
2024/01/11 00:07:33;;;;;;;38.40;19.83;;;2.10;66.00;;;;;;4979627;28;20073;-66
2024/01/11 00:10:00;;;;;;;39.80;21.30;;;2.10;65.80;;;;;;4979343;28;20019;-66
2024/01/11 00:12:26;;;;;;;49.35;21.90;;;2.10;66.00;;;;;;4979592;28;20019;-71
2024/01/11 00:14:53;;;;;;;48.83;23.08;;;2.10;66.20;;;;;;4978634;28;20047;-71
2024/01/11 00:17:18;;;;;;;49.47;23.40;;;2.00;66.50;;;;;;4979209;28;20333;-69
2024/01/11 00:19:44;;;;;;;42.95;21.80;;;2.00;66.40;;;;;;4978259;28;20034;-70
2024/01/11 00:22:10;;;;;;;50.78;23.33;;;2.00;66.40;;;;;;4979144;28;20367;-71
2024/01/11 00:24:36;;;;;;;46.45;21.00;;;2.00;66.30;;;;;;4979243;28;20492;-69
2024/01/11 00:27:02;;;;;;;47.17;22.23;;;2.00;66.20;;;;;;4978728;28;20425;-69
2024/01/11 00:29:28;;;;;;;41.53;20.08;;;2.00;66.20;;;;;;4978733;28;20050;-66
2024/01/11 00:31:55;;;;;;;43.05;22.15;;;1.90;66.60;;;;;;4978720;28;20031;-67
2024/01/11 00:34:21;;;;;;;45.92;21.65;;;2.00;67.10;;;;;;4978861;28;20027;-69
2024/01/11 00:36:47;;;;;;;34.05;19.17;;;1.90;66.90;;;;;;4978615;28;20386;-67
2024/01/11 00:39:14;;;;;;;42.95;19.92;;;1.90;66.70;;;;;;4978585;28;20053;-70
2024/01/11 00:41:40;;;;;;;34.15;17.95;;;2.00;66.70;;;;;;4979028;28;20500;-70
2024/01/11 00:44:07;;;;;;;44.50;21.73;;;2.00;66.70;;;;;;4978541;28;20441;-69
2024/01/11 00:46:34;;;;;;;41.53;19.42;;;1.90;66.70;;;;;;4978701;28;20492;-71
2024/01/11 00:49:00;;;;;;;39.15;19.48;;;1.90;66.90;;;;;;4978384;28;20054;-67
2024/01/11 00:51:26;;;;;;;40.50;19.27;;;1.90;66.80;;;;;;4978344;28;20345;-69
2024/01/11 00:53:52;;;;;;;40.65;20.58;;;1.90;67.00;;;;;;4978240;28;20026;-67
2024/01/11 00:56:19;;;;;;;40.38;20.77;;;1.90;67.20;;;;;;4978542;28;20022;-68
2024/01/11 00:58:45;;;;;;;41.35;21.38;;;1.90;67.10;;;;;;4978494;28;20027;-66
2024/01/11 01:01:11;;;;;;;40.88;21.70;;;1.90;67.10;;;;;;4978167;28;20377;-71
2024/01/11 01:03:38;;;;;;;40.17;22.60;;;1.90;67.40;;;;;;4977992;28;20030;-66
2024/01/11 01:06:05;;;;;;;43.45;22.60;;;1.90;67.30;;;;;;4978069;28;20437;-67
2024/01/11 01:08:30;;;;;;;41.08;22.55;;;1.90;67.40;;;;;;4977983;28;20023;-70
2024/01/11 01:10:56;;;;;;;44.72;22.73;;;1.90;67.90;;;;;;4978019;28;20042;-67
2024/01/11 01:13:22;;;;;;;45.15;23.27;;;1.90;67.50;;;;;;4977683;28;20373;-67
2024/01/11 01:15:48;;;;;;;41.33;20.95;;;1.90;67.30;;;;;;4978192;28;20097;-68
2024/01/11 01:18:14;;;;;;;38.90;20.95;;;1.90;67.30;;;;;;4977858;28;20452;-67
2024/01/11 01:20:40;;;;;;;43.63;22.15;;;1.90;67.20;;;;;;4977819;28;20077;-66
2024/01/11 01:23:06;;;;;;;40.42;21.42;;;1.90;67.50;;;;;;4978535;28;20026;-70
2024/01/11 01:25:35;;;;;;;41.55;21.52;;;1.90;67.70;;;;;;4978199;28;20426;-67
2024/01/11 01:28:01;;;;;;;40.67;21.15;;;1.90;68.00;;;;;;4978183;28;20023;-67
2024/01/11 01:30:27;;;;;;;40.33;20.83;;;1.90;68.30;;;;;;4977551;28;20045;-66
2024/01/11 01:32:54;;;;;;;43.28;21.02;;;1.90;68.50;;;;;;4977773;28;20094;-68
2024/01/11 01:35:19;;;;;;;37.33;18.95;;;1.80;68.80;;;;;;4977518;28;20041;-68
2024/01/11 01:37:45;;;;;;;42.20;21.23;;;1.80;68.40;;;;;;4977954;28;20023;-68
2024/01/11 01:40:12;;;;;;;37.58;21.00;;;1.80;68.80;;;;;;4977668;28;20027;-68
2024/01/11 01:42:45;;;;;;;35.05;19.40;;;1.80;68.80;;;;;;4977858;28;20074;-70
2024/01/11 01:45:11;;;;;;;40.58;21.50;;;1.80;68.40;;;;;;4977373;28;20018;-69
2024/01/11 01:47:40;;;;;;;41.03;19.17;;;1.80;68.80;;;;;;4977331;28;20023;-66
2024/01/11 01:50:07;;;;;;;37.42;19.40;;;1.80;69.00;;;;;;4976414;28;20026;-67
2024/01/11 01:52:34;;;;;;;36.08;18.63;;;1.70;68.80;;;;;;4977232;28;20476;-67
2024/01/11 01:55:02;;;;;;;38.97;19.63;;;1.70;68.90;;;;;;4977080;28;20037;-69
2024/01/11 01:57:30;;;;;;;35.35;19.38;;;1.70;68.90;;;;;;4976937;28;20034;-65
2024/01/11 01:59:56;;;;;;;39.65;20.17;;;1.70;69.10;;;;;;4977315;28;20027;-69
2024/01/11 02:02:22;;;;;;;39.28;20.10;;;1.60;69.00;;;;;;4976419;28;20368;-67
2024/01/11 02:04:49;;;;;;;36.53;17.88;;;1.60;69.30;;;;;;4976833;28;20085;-70
2024/01/11 02:07:16;;;;;;;35.13;18.40;;;1.60;69.10;;;;;;4977452;28;20097;-66
2024/01/11 02:09:43;;;;;;;32.65;17.33;;;1.60;69.00;;;;;;4976926;28;20087;-67
2024/01/11 02:12:12;;;;;;;38.55;20.30;;;1.50;68.70;;;;;;4976877;28;20018;-66
2024/01/11 02:14:39;;;;;;;35.20;18.95;;;1.50;68.90;;;;;;4976507;28;20137;-67
2024/01/11 02:17:05;;;;;;;36.03;17.60;;;1.50;68.90;;;;;;4976809;28;20368;-69
2024/01/11 02:19:31;;;;;;;35.97;16.88;;;1.50;68.90;;;;;;4977298;28;20106;-65
2024/01/11 02:22:11;;;;;;;35.60;18.10;;;1.50;68.80;;;;;;4976986;28;20039;-71
2024/01/11 02:24:37;;;;;;;34.13;16.98;;;1.50;69.00;;;;;;4977091;28;20023;-70
2024/01/11 02:27:05;;;;;;;37.97;17.70;;;1.40;68.70;;;;;;4977186;28;20019;-69
2024/01/11 02:29:31;;;;;;;38.53;19.48;;;1.40;68.30;;;;;;4976909;28;20023;-66
2024/01/11 02:32:00;;;;;;;35.35;18.58;;;1.40;68.40;;;;;;4976851;28;20018;-70
2024/01/11 02:34:27;;;;;;;41.15;19.42;;;1.40;68.90;;;;;;4976706;28;20086;-67
2024/01/11 02:36:56;;;;;;;35.08;17.80;;;1.40;69.00;;;;;;4976743;28;20023;-70
2024/01/11 02:39:24;;;;;;;34.13;15.77;;;1.30;68.90;;;;;;4976521;28;20023;-65
2024/01/11 02:41:51;;;;;;;32.20;16.95;;;1.30;69.00;;;;;;4975735;28;20034;-71
2024/01/11 02:44:17;;;;;;;30.27;16.80;;;1.30;68.90;;;;;;4976336;28;20030;-70
2024/01/11 02:46:43;;;;;;;36.53;17.77;;;1.30;68.70;;;;;;4976660;28;20033;-66
2024/01/11 02:49:09;;;;;;;34.25;16.50;;;1.30;68.70;;;;;;4976914;28;20034;-66
2024/01/11 02:51:36;;;;;;;34.30;17.13;;;1.40;68.50;;;;;;4976354;28;20025;-70
2024/01/11 02:54:02;;;;;;;33.72;16.77;;;1.40;68.50;;;;;;4976228;28;20046;-69
2024/01/11 02:56:28;;;;;;;34.70;16.25;;;1.30;68.70;;;;;;4976637;28;20019;-66
2024/01/11 02:58:54;;;;;;;34.25;16.40;;;1.40;68.30;;;;;;4976360;28;20034;-66
2024/01/11 03:01:20;;;;;;;31.98;17.10;;;1.40;68.70;;;;;;4976275;28;20557;-66
2024/01/11 03:03:46;;;;;;;34.85;17.20;;;1.30;69.00;;;;;;4975101;28;20335;-67
2024/01/11 03:06:12;;;;;;;34.00;16.02;;;1.30;69.40;;;;;;4976728;28;20104;-68
2024/01/11 03:08:38;;;;;;;31.25;16.63;;;1.30;69.40;;;;;;4976191;28;20488;-70
2024/01/11 03:11:04;;;;;;;33.28;14.82;;;1.30;69.60;;;;;;4976234;28;20055;-68
2024/01/11 03:13:31;;;;;;;37.85;16.52;;;1.30;69.10;;;;;;4976023;28;20051;-66
2024/01/11 03:15:57;;;;;;;33.92;15.98;;;1.20;69.10;;;;;;4975810;28;20095;-65
2024/01/11 03:18:23;;;;;;;32.30;15.57;;;1.30;69.00;;;;;;4976402;28;20031;-67
2024/01/11 03:20:49;;;;;;;31.63;14.98;;;1.30;68.80;;;;;;4976398;28;20027;-65
2024/01/11 03:23:14;;;;;;;34.35;16.67;;;1.30;68.90;;;;;;4976169;28;20026;-65
2024/01/11 03:25:40;;;;;;;34.13;16.23;;;1.30;69.20;;;;;;4976098;28;20038;-69
2024/01/11 03:28:06;;;;;;;33.13;17.55;;;1.30;69.00;;;;;;4976514;28;20026;-66
2024/01/11 03:30:32;;;;;;;35.40;16.42;;;1.30;69.20;;;;;;4976509;28;20120;-69
2024/01/11 03:32:58;;;;;;;34.97;17.23;;;1.30;69.20;;;;;;4976455;28;20428;-68
2024/01/11 03:35:24;;;;;;;30.67;16.35;;;1.30;68.70;;;;;;4976256;28;20046;-66
2024/01/11 03:37:51;;;;;;;32.45;17.17;;;1.30;68.80;;;;;;4975996;28;20457;-70
2024/01/11 03:40:17;;;;;;;34.53;16.13;;;1.30;69.00;;;;;;4976172;28;20048;-69
2024/01/11 03:42:43;;;;;;;30.85;16.60;;;1.30;69.10;;;;;;4976046;28;20072;-69
2024/01/11 03:45:09;;;;;;;35.38;16.80;;;1.40;69.30;;;;;;4975848;28;20027;-68
2024/01/11 03:47:35;;;;;;;33.03;16.25;;;1.40;69.00;;;;;;4976086;28;20019;-66
2024/01/11 03:50:01;;;;;;;35.00;16.33;;;1.40;69.10;;;;;;4975893;28;20023;-68
2024/01/11 03:52:27;;;;;;;26.55;14.20;;;1.40;69.10;;;;;;4975767;28;20034;-68
2024/01/11 03:54:53;;;;;;;34.90;16.75;;;1.30;69.10;;;;;;4979419;28;20023;-68
2024/01/11 03:57:19;;;;;;;35.60;17.30;;;1.30;69.10;;;;;;4979327;28;20309;-67
2024/01/11 03:59:45;;;;;;;27.15;15.48;;;1.30;69.10;;;;;;4979224;28;20026;-68
2024/01/11 04:02:11;;;;;;;33.08;15.95;;;1.30;69.10;;;;;;4979791;28;20134;-69
2024/01/11 04:04:37;;;;;;;32.28;15.75;;;1.40;69.10;;;;;;4978115;28;20352;-70
2024/01/11 04:07:03;;;;;;;31.35;15.80;;;1.40;69.20;;;;;;4979411;28;20026;-66
2024/01/11 04:09:29;;;;;;;36.17;17.08;;;1.30;69.70;;;;;;4979643;28;20080;-69
2024/01/11 04:11:55;;;;;;;35.50;18.35;;;1.40;69.80;;;;;;4979311;28;20067;-69
2024/01/11 04:14:21;;;;;;;31.95;15.52;;;1.40;69.30;;;;;;4979009;28;20047;-66
2024/01/11 04:16:46;;;;;;;35.67;17.17;;;1.40;69.30;;;;;;4979000;28;20034;-69
2024/01/11 04:19:12;;;;;;;33.85;15.68;;;1.40;69.30;;;;;;4979469;28;20078;-67
2024/01/11 04:21:38;;;;;;;33.38;16.65;;;1.30;69.20;;;;;;4978950;28;20034;-66
2024/01/11 04:24:08;;;;;;;27.73;14.82;;;1.30;69.10;;;;;;4978739;28;20030;-71
2024/01/11 04:26:34;;;;;;;31.55;15.10;;;1.30;69.00;;;;;;4979071;28;20029;-69
2024/01/11 04:29:00;;;;;;;30.25;14.90;;;1.30;69.40;;;;;;4979312;28;20023;-66
2024/01/11 04:31:27;;;;;;;32.97;13.95;;;1.30;69.10;;;;;;4978755;28;20026;-66
2024/01/11 04:33:53;;;;;;;29.40;14.02;;;1.30;69.10;;;;;;4979167;28;20106;-67
2024/01/11 04:36:19;;;;;;;30.77;15.02;;;1.30;69.10;;;;;;4978926;28;20157;-68
2024/01/11 04:38:44;;;;;;;31.70;14.98;;;1.30;69.20;;;;;;4978600;28;20058;-68
2024/01/11 04:41:11;;;;;;;28.75;15.30;;;1.30;69.70;;;;;;4977631;28;20046;-70
2024/01/11 04:43:41;;;;;;;30.70;14.90;;;1.20;69.50;;;;;;4978709;28;20081;-71
2024/01/11 04:46:21;;;;;;;32.90;14.98;;;1.30;69.20;;;;;;4978737;28;20050;-70
2024/01/11 04:48:51;;;;;;;33.80;15.05;;;1.20;69.00;;;;;;4978445;28;20035;-67
2024/01/11 04:51:18;;;;;;;33.20;16.42;;;1.20;69.10;;;;;;4978646;28;20109;-70
2024/01/11 04:53:44;;;;;;;34.10;15.75;;;1.20;69.20;;;;;;4978524;28;20441;-68
2024/01/11 04:56:14;;;;;;;43.25;19.42;;;1.20;69.30;;;;;;4978252;28;20030;-69
2024/01/11 04:58:41;;;;;;;60.92;24.02;;;1.20;69.30;;;;;;4978175;28;20474;-70
2024/01/11 05:01:15;;;;;;;70.28;26.65;;;1.20;69.10;;;;;;4978173;28;20077;-67
2024/01/11 05:03:42;;;;;;;57.25;23.35;;;1.20;69.10;;;;;;4978585;28;20019;-68
2024/01/11 05:06:08;;;;;;;50.58;22.20;;;1.20;69.00;;;;;;4977717;28;20034;-67
2024/01/11 05:08:34;;;;;;;49.67;24.23;;;1.20;69.30;;;;;;4978064;28;20035;-69
2024/01/11 05:11:00;;;;;;;44.92;20.35;;;1.20;69.20;;;;;;4978007;28;20027;-70
2024/01/11 05:13:26;;;;;;;39.83;19.08;;;1.20;69.10;;;;;;4977870;28;20049;-69
2024/01/11 05:15:52;;;;;;;36.03;17.75;;;1.20;69.10;;;;;;4977881;28;20034;-67
2024/01/11 05:18:17;;;;;;;33.28;16.60;;;1.20;69.20;;;;;;4978392;28;20027;-67
2024/01/11 05:20:44;;;;;;;43.03;20.00;;;1.20;69.20;;;;;;4977817;28;20126;-66
2024/01/11 05:23:11;;;;;;;41.90;21.60;;;1.20;69.00;;;;;;4977904;28;20082;-67
2024/01/11 05:25:37;;;;;;;34.42;15.23;;;1.20;69.40;;;;;;4977667;28;20081;-66
2024/01/11 05:28:03;;;;;;;32.78;15.30;;;1.30;68.80;;;;;;4978171;28;20030;-66
2024/01/11 05:30:30;;;;;;;28.95;14.60;;;1.20;68.40;;;;;;4977640;28;20019;-67
2024/01/11 05:32:56;;;;;;;30.33;14.93;;;1.10;69.20;;;;;;4976546;28;20496;-67
2024/01/11 05:35:27;;;;;;;30.05;14.07;;;1.00;69.50;;;;;;4977554;28;20030;-70
2024/01/11 05:37:56;;;;;;;28.75;14.27;;;1.10;69.90;;;;;;4978245;28;20030;-69
2024/01/11 05:40:22;;;;;;;32.65;14.43;;;1.00;69.70;;;;;;4977534;28;20597;-69
2024/01/11 05:42:48;;;;;;;30.90;14.48;;;1.00;69.70;;;;;;4977254;28;20023;-67
2024/01/11 05:45:16;;;;;;;34.00;14.07;;;1.00;69.90;;;;;;4977330;28;20031;-68
2024/01/11 05:47:44;;;;;;;31.73;14.48;;;1.00;70.00;;;;;;4977549;28;20027;-68
2024/01/11 05:50:11;;;;;;;30.52;13.55;;;1.00;69.60;;;;;;4977237;28;20030;-70
2024/01/11 05:52:37;;;;;;;31.42;13.98;;;1.00;69.30;;;;;;4977193;28;20105;-69
2024/01/11 05:55:04;;;;;;;30.02;14.18;;;1.00;69.40;;;;;;4977604;28;20109;-67
2024/01/11 05:57:30;;;;;;;29.60;13.30;;;1.00;69.40;;;;;;4977062;28;20034;-67
2024/01/11 05:59:56;;;;;;;29.27;13.93;;;1.00;69.50;;;;;;4977342;28;20030;-68
2024/01/11 06:02:22;;;;;;;28.92;14.05;;;0.90;69.50;;;;;;4977638;28;20093;-68
2024/01/11 06:04:49;;;;;;;27.45;13.35;;;0.90;70.00;;;;;;4977174;28;20121;-67
2024/01/11 06:07:15;;;;;;;28.02;13.50;;;0.90;69.90;;;;;;4977457;28;20102;-66
2024/01/11 06:09:41;;;;;;;28.05;14.65;;;0.90;69.80;;;;;;4977207;28;20019;-65
2024/01/11 06:12:08;;;;;;;28.83;14.10;;;0.90;69.80;;;;;;4976931;28;20357;-66
2024/01/11 06:14:35;;;;;;;30.85;13.63;;;0.90;70.00;;;;;;4976428;28;20058;-69
2024/01/11 06:17:00;;;;;;;30.50;13.93;;;0.90;69.70;;;;;;4976426;28;20381;-68
2024/01/11 06:19:26;;;;;;;26.77;13.40;;;0.90;69.50;;;;;;4976811;28;20026;-65
2024/01/11 06:21:52;;;;;;;30.50;13.73;;;0.90;69.60;;;;;;4977242;28;20094;-66
2024/01/11 06:24:19;;;;;;;34.63;15.23;;;0.90;69.60;;;;;;4976551;28;20102;-69
2024/01/11 06:26:44;;;;;;;32.40;15.25;;;0.90;69.60;;;;;;4976929;28;20031;-63
2024/01/11 06:29:11;;;;;;;24.58;13.23;;;0.90;69.30;;;;;;4976629;28;20516;-66
2024/01/11 06:31:37;;;;;;;30.77;15.07;;;0.90;69.30;;;;;;4976589;28;20077;-66
2024/01/11 06:34:04;;;;;;;31.95;14.57;;;0.90;69.70;;;;;;4976470;28;20023;-69
2024/01/11 06:36:32;;;;;;;28.15;13.80;;;0.90;69.70;;;;;;4976930;28;20117;-68
2024/01/11 06:38:58;;;;;;;29.85;14.23;;;0.90;70.00;;;;;;4976470;28;20322;-67
2024/01/11 06:41:24;;;;;;;32.88;14.85;;;0.90;69.80;;;;;;4976937;28;20444;-69
2024/01/11 06:43:50;;;;;;;30.77;14.20;;;0.90;69.70;;;;;;4976255;28;20027;-66
2024/01/11 06:46:21;;;;;;;30.83;13.95;;;0.90;69.60;;;;;;4976938;28;20027;-68
2024/01/11 06:48:47;;;;;;;36.17;16.27;;;0.90;70.10;;;;;;4976657;28;20026;-68
2024/01/11 06:51:16;;;;;;;30.63;15.40;;;0.90;70.20;;;;;;4976304;28;20031;-66
2024/01/11 06:53:43;;;;;;;36.85;16.33;;;0.90;70.20;;;;;;4976545;28;20157;-68
2024/01/11 06:56:16;;;;;;;43.95;19.27;;;0.90;70.20;;;;;;4976825;28;20030;-70
2024/01/11 06:58:43;;;;;;;34.60;17.05;;;0.90;69.70;;;;;;4976305;28;20030;-67
2024/01/11 07:01:09;;;;;;;35.47;16.35;;;0.80;70.00;;;;;;4959355;28;20038;-65
2024/01/11 07:03:37;;;;;;;41.10;18.48;;;0.90;69.80;;;;;;4976354;28;20106;-68
2024/01/11 07:06:03;;;;;;;42.97;19.48;;;0.90;70.10;;;;;;4976468;28;20026;-69
2024/01/11 07:08:30;;;;;;;34.78;17.33;;;0.80;70.00;;;;;;4976189;28;20134;-66
2024/01/11 07:10:56;;;;;;;42.65;19.65;;;0.90;70.00;;;;;;4976407;28;20050;-66
2024/01/11 07:13:23;;;;;;;39.35;19.27;;;0.90;70.40;;;;;;4975821;28;20038;-68
2024/01/11 07:15:49;;;;;;;39.45;18.33;;;0.90;70.30;;;;;;4976671;28;20031;-67
2024/01/11 07:18:15;;;;;;;40.58;19.80;;;0.90;70.50;;;;;;4976387;28;20340;-69
2024/01/11 07:20:41;;;;;;;33.22;17.38;;;0.90;70.40;;;;;;4976129;28;20027;-67
2024/01/11 07:23:07;;;;;;;34.15;18.10;;;0.90;70.20;;;;;;4976013;28;20022;-65
2024/01/11 07:25:34;;;;;;;39.15;18.00;;;1.00;70.60;;;;;;4976597;28;20301;-67
2024/01/11 07:28:01;;;;;;;42.70;18.35;;;1.00;70.60;;;;;;4976630;28;20074;-65
2024/01/11 07:30:27;;;;;;;36.78;17.05;;;1.00;70.40;;;;;;4980409;28;20031;-68
2024/01/11 07:32:53;;;;;;;38.47;15.50;;;1.00;70.90;;;;;;4980263;28;20086;-68
2024/01/11 07:35:20;;;;;;;30.92;14.35;;;1.10;70.90;;;;;;4979696;28;20364;-66
2024/01/11 07:37:46;;;;;;;35.05;15.95;;;1.10;70.50;;;;;;4979707;28;20418;-68
2024/01/11 07:40:13;;;;;;;33.72;15.40;;;1.10;70.70;;;;;;4979709;28;20054;-68
2024/01/11 07:42:40;;;;;;;27.42;14.27;;;1.10;71.10;;;;;;4979870;28;20102;-66
2024/01/11 07:45:07;;;;;;;31.33;15.80;;;1.20;71.20;;;;;;4979397;28;20058;-65
2024/01/11 07:47:33;;;;;;;37.30;17.08;;;1.30;71.20;;;;;;4979570;28;20026;-67
2024/01/11 07:49:59;;;;;;;35.72;16.90;;;1.30;71.20;;;;;;4979476;28;20407;-68
2024/01/11 07:52:25;;;;;;;37.25;16.05;;;1.40;71.20;;;;;;4979718;28;20046;-67
2024/01/11 07:54:51;;;;;;;44.47;19.92;;;1.40;70.90;;;;;;4979342;28;20356;-70
2024/01/11 07:57:17;;;;;;;48.63;19.58;;;1.50;70.70;;;;;;4979652;28;20038;-69
2024/01/11 07:59:43;;;;;;;44.88;18.95;;;1.60;70.70;;;;;;4979371;28;20354;-67
2024/01/11 08:02:09;;;;;;;46.08;19.65;;;1.60;71.00;;;;;;4979288;28;20433;-66
2024/01/11 08:04:35;;;;;;;44.22;21.42;;;1.70;71.10;;;;;;4979169;28;20038;-68
2024/01/11 08:07:01;;;;;;;39.20;19.85;;;1.80;71.20;;;;;;4979479;28;20030;-66
2024/01/11 08:09:29;;;;;;;47.33;20.85;;;1.90;71.20;;;;;;4979670;28;20105;-67
2024/01/11 08:11:55;;;;;;;38.00;16.33;;;2.00;71.00;;;;;;4979097;28;20027;-67
2024/01/11 08:14:21;;;;;;;50.83;23.05;;;2.10;71.40;;;;;;4978792;28;20143;-69
2024/01/11 08:16:47;;;;;;;44.83;22.75;;;2.30;72.10;;;;;;4979004;28;20030;-65
2024/01/11 08:19:14;;;;;;;57.63;29.65;;;2.40;72.00;;;;;;4978980;28;20047;-67
2024/01/11 08:21:41;;;;;;;45.40;22.85;;;2.60;72.60;;;;;;4979410;28;20034;-68
2024/01/11 08:24:07;;;;;;;63.42;30.48;;;2.70;72.30;;;;;;4978711;28;20078;-66
2024/01/11 08:26:33;;;;;;;50.00;25.02;;;2.90;72.40;;;;;;4978814;28;20023;-66
2024/01/11 08:29:00;;;;;;;55.45;27.55;;;3.00;71.80;;;;;;4978788;28;20057;-66
2024/01/11 08:31:26;;;;;;;55.47;26.02;;;3.20;71.90;;;;;;4978606;28;20030;-66
2024/01/11 08:33:53;;;;;;;48.08;22.48;;;3.30;71.50;;;;;;4978418;28;20026;-67
2024/01/11 08:36:20;;;;;;;49.22;22.98;;;3.50;71.30;;;;;;4978726;28;20377;-66
2024/01/11 08:38:46;;;;;;;42.25;20.80;;;3.60;71.00;;;;;;4978737;28;20038;-67
2024/01/11 08:41:12;;;;;;;49.58;21.30;;;3.60;71.10;;;;;;4977581;28;20353;-65
2024/01/11 08:43:39;;;;;;;43.33;20.40;;;3.80;71.10;;;;;;4978365;28;20107;-69
2024/01/11 08:46:04;;;;;;;44.50;19.63;;;3.90;71.30;;;;;;4978451;28;20019;-69
2024/01/11 08:48:30;;;;;;;37.63;18.73;;;4.00;71.40;;;;;;4978714;28;20130;-68
2024/01/11 08:50:57;;;;;;;41.20;19.27;;;4.10;71.60;;;;;;4978413;28;20330;-66
2024/01/11 08:53:23;;;;;;;45.60;20.95;;;4.20;70.80;;;;;;4978275;28;20158;-67
2024/01/11 08:55:48;;;;;;;44.65;21.02;;;4.40;70.40;;;;;;4978788;28;20113;-68
2024/01/11 08:58:14;;;;;;;38.72;19.08;;;4.40;70.30;;;;;;4978425;28;20049;-65
2024/01/11 09:00:40;;;;;;;43.45;20.77;;;4.50;70.40;;;;;;4978140;28;20049;-65
2024/01/11 09:03:06;;;;;;;43.42;20.48;;;4.60;70.50;;;;;;4977953;28;20429;-67
2024/01/11 09:05:32;;;;;;;43.20;21.17;;;4.70;70.20;;;;;;4978118;28;20038;-67
2024/01/11 09:07:58;;;;;;;37.72;20.50;;;4.90;70.20;;;;;;4978092;28;20034;-64
2024/01/11 09:10:24;;;;;;;38.30;20.45;;;4.90;70.20;;;;;;4978277;28;20441;-63
2024/01/11 09:12:50;;;;;;;38.97;20.05;;;5.00;69.70;;;;;;4978200;28;20030;-67
2024/01/11 09:15:16;;;;;;;36.10;19.23;;;5.10;69.80;;;;;;4977998;28;20376;-65
2024/01/11 09:17:42;;;;;;;36.67;19.45;;;5.20;69.30;;;;;;4977854;28;20479;-68
2024/01/11 09:20:09;;;;;;;33.33;15.35;;;5.30;69.20;;;;;;4978355;28;20436;-66
2024/01/11 09:22:35;;;;;;;31.83;15.40;;;5.40;68.30;;;;;;4977809;28;20027;-67
2024/01/11 09:25:01;;;;;;;31.90;17.42;;;5.40;67.60;;;;;;4977902;28;20503;-67
2024/01/11 09:27:27;;;;;;;33.72;18.05;;;5.50;67.30;;;;;;4977993;28;20031;-68
2024/01/11 09:29:53;;;;;;;31.50;15.07;;;5.60;67.40;;;;;;4976694;28;20027;-65
2024/01/11 09:32:20;;;;;;;36.22;19.95;;;5.70;67.10;;;;;;4977634;28;20023;-67
2024/01/11 09:34:45;;;;;;;36.53;19.13;;;5.80;67.10;;;;;;4977301;28;20039;-64
2024/01/11 09:37:12;;;;;;;36.38;19.00;;;5.90;67.10;;;;;;4977530;28;20219;-64
2024/01/11 09:39:38;;;;;;;32.88;16.60;;;6.00;67.20;;;;;;5275692;23;20061;-67
2024/01/11 09:42:11;;;;;;;32.25;16.02;;;6.10;66.80;;;;;;5015560;28;20478;-69
2024/01/11 09:44:40;;;;;;;31.00;17.75;;;6.20;66.80;;;;;;5016704;28;20061;-69
2024/01/11 09:47:08;;;;;;;30.73;15.77;;;6.20;66.10;;;;;;5015590;28;20123;-69
2024/01/11 09:49:37;;;;;;;32.00;15.50;;;6.30;66.10;;;;;;5004861;28;20014;-69
2024/01/11 09:52:05;;;;;;;35.50;17.05;;;6.40;65.80;;;;;;4996449;28;20026;-68
2024/01/11 09:54:31;;;;;;;33.00;17.23;;;6.50;65.70;;;;;;4996700;28;20018;-67
2024/01/11 09:57:00;;;;;;;30.40;15.07;;;6.60;65.70;;;;;;4996908;28;20152;-67
2024/01/11 09:59:27;;;;;;;30.10;15.10;;;6.60;65.70;;;;;;4996467;28;20031;-66
2024/01/11 10:01:53;;;;;;;32.70;15.48;;;6.70;65.70;;;;;;4996545;28;20364;-68
2024/01/11 10:04:20;;;;;;;27.55;15.63;;;6.80;64.70;;;;;;4996460;28;20439;-66
2024/01/11 10:06:47;;;;;;;24.48;14.05;;;6.90;64.80;;;;;;4996471;28;20019;-69
2024/01/11 10:09:13;;;;;;;23.23;11.90;;;7.00;64.40;;;;;;4996598;28;20053;-65
2024/01/11 10:11:39;;;;;;;25.58;12.63;;;7.00;64.70;;;;;;4996399;28;20436;-68
2024/01/11 10:14:05;;;;;;;25.45;13.27;;;7.20;64.20;;;;;;4996353;28;20026;-67
2024/01/11 10:16:31;;;;;;;25.33;13.13;;;7.20;63.80;;;;;;4996588;28;20116;-67
2024/01/11 10:18:57;;;;;;;24.65;12.23;;;7.30;63.40;;;;;;4995688;28;20054;-66
2024/01/11 10:21:24;;;;;;;27.70;13.63;;;7.40;63.30;;;;;;5590421;23;20112;-66
2024/01/11 10:23:51;;;;;;;25.15;13.75;;;7.40;63.30;;;;;;5016000;28;20057;-67
2024/01/11 10:26:17;;;;;;;26.13;13.90;;;7.50;61.80;;;;;;5015795;28;20026;-68
2024/01/11 10:28:47;;;;;;;41.88;19.00;;;7.50;62.30;;;;;;5015959;28;20026;-66
2024/01/11 10:31:27;;;;;;;37.83;20.60;;;7.50;62.70;;;;;;5009495;28;20035;-68
2024/01/11 10:33:53;;;;;;;33.65;15.98;;;7.60;62.60;;;;;;4996284;28;20045;-63
2024/01/11 10:36:19;;;;;;;64.95;30.15;;;7.70;62.50;;;;;;4995969;28;20379;-65
2024/01/11 10:38:48;;;;;;;117.78;55.35;;;7.80;62.20;;;;;;4995977;28;20053;-67
2024/01/11 10:41:19;;;;;;;58.15;27.35;;;7.80;61.60;;;;;;4995772;28;20026;-63
2024/01/11 10:43:48;;;;;;;57.20;26.88;;;7.90;61.80;;;;;;4996091;28;20030;-66
2024/01/11 10:46:18;;;;;;;77.63;39.28;;;7.90;61.10;;;;;;4995833;28;20023;-68
2024/01/11 10:48:47;;;;;;;62.10;29.20;;;8.00;59.20;;;;;;4995782;28;20022;-67
2024/01/11 10:51:19;;;;;;;50.30;24.38;;;8.00;60.00;;;;;;4995990;28;20034;-66
2024/01/11 10:53:47;;;;;;;38.50;20.15;;;8.00;60.00;;;;;;4996314;28;20089;-68
2024/01/11 10:56:16;;;;;;;27.70;15.25;;;8.10;60.30;;;;;;4994765;28;20030;-68
2024/01/11 10:58:43;;;;;;;24.60;13.73;;;8.20;60.00;;;;;;4995658;28;20022;-64
2024/01/11 11:01:11;;;;;;;22.25;12.80;;;8.20;59.50;;;;;;4995897;28;20030;-69
2024/01/11 11:03:38;;;;;;;22.38;12.40;;;8.30;58.50;;;;;;4997338;28;20030;-65
2024/01/11 11:06:06;;;;;;;21.55;12.23;;;8.30;58.10;;;;;;4999779;28;20025;-66
2024/01/11 11:08:34;;;;;;;20.70;11.52;;;8.30;58.20;;;;;;4998793;28;20471;-67
2024/01/11 11:11:07;;;;;;;25.27;12.30;;;8.40;59.00;;;;;;4999632;28;20359;-66
2024/01/11 11:13:36;;;;;;;23.92;12.80;;;8.40;59.00;;;;;;4999602;28;20383;-66
2024/01/11 11:16:05;;;;;;;25.42;12.85;;;8.50;58.90;;;;;;5000136;28;20030;-67
2024/01/11 11:18:34;;;;;;;27.13;14.00;;;8.60;58.90;;;;;;4998703;28;20033;-67
2024/01/11 11:21:10;;;;;;;22.65;12.05;;;8.70;58.90;;;;;;4999185;28;20030;-66
2024/01/11 11:23:37;;;;;;;23.73;12.50;;;8.70;57.90;;;;;;4999681;28;20053;-66
2024/01/11 11:26:09;;;;;;;22.90;11.82;;;8.70;56.80;;;;;;4999377;28;20106;-67
2024/01/11 11:28:36;;;;;;;19.92;10.55;;;8.70;55.50;;;;;;4998446;28;20037;-64
2024/01/11 11:31:03;;;;;;;22.40;11.75;;;8.70;56.80;;;;;;4999227;28;20041;-66
2024/01/11 11:33:30;;;;;;;19.23;10.85;;;8.80;57.50;;;;;;4999313;28;20455;-67
2024/01/11 11:35:59;;;;;;;18.65;11.23;;;8.80;56.10;;;;;;4998273;28;20084;-66
2024/01/11 11:38:30;;;;;;;18.33;10.68;;;8.80;55.80;;;;;;4998793;28;20022;-69
2024/01/11 11:40:58;;;;;;;19.90;11.25;;;8.90;56.70;;;;;;4999071;28;20420;-67
2024/01/11 11:43:27;;;;;;;20.10;10.82;;;8.90;57.00;;;;;;4998966;28;20026;-65
2024/01/11 11:45:54;;;;;;;20.52;11.10;;;8.90;56.20;;;;;;4999047;28;20034;-69
2024/01/11 11:51:09;;;;;;;20.15;11.93;;;9.00;55.90;;;;;;5263562;23;20378;-67
2024/01/11 11:53:39;;;;;;;20.58;11.80;;;9.10;55.70;;;;;;4999185;28;20015;-65
2024/01/11 11:56:06;;;;;;;23.63;13.90;;;9.10;55.20;;;;;;4999185;28;20030;-68
2024/01/11 11:58:34;;;;;;;22.27;10.98;;;9.10;52.70;;;;;;4999337;28;20033;-65
2024/01/11 12:01:01;;;;;;;22.77;11.48;;;9.20;55.20;;;;;;4984875;28;20026;-68
2024/01/11 12:03:32;;;;;;;22.70;12.27;;;9.20;55.70;;;;;;4979203;28;20022;-68
2024/01/11 12:06:00;;;;;;;24.75;13.35;;;9.30;56.00;;;;;;4979803;28;20078;-67
2024/01/11 12:08:27;;;;;;;24.13;13.65;;;9.40;54.30;;;;;;4979217;28;20030;-64
2024/01/11 12:10:54;;;;;;;23.05;12.27;;;9.40;54.30;;;;;;4979075;28;20027;-65
2024/01/11 12:13:20;;;;;;;21.55;12.23;;;9.50;54.70;;;;;;4979114;28;20109;-68
2024/01/11 12:15:47;;;;;;;19.17;11.35;;;9.60;55.60;;;;;;4979005;28;20433;-68
2024/01/11 12:18:13;;;;;;;21.80;11.93;;;9.60;55.70;;;;;;4978348;28;20129;-64
2024/01/11 12:20:39;;;;;;;27.55;13.48;;;9.70;54.80;;;;;;4979019;28;20512;-68
2024/01/11 12:23:06;;;;;;;23.20;11.77;;;9.70;55.20;;;;;;4978854;28;20026;-68
2024/01/11 12:25:35;;;;;;;20.70;11.15;;;9.80;54.70;;;;;;4979163;28;20027;-68
2024/01/11 12:28:01;;;;;;;21.23;12.75;;;9.90;54.70;;;;;;4978831;28;20380;-65
2024/01/11 12:30:29;;;;;;;18.85;11.55;;;9.90;52.30;;;;;;4979029;28;20027;-67
2024/01/11 12:32:56;;;;;;;22.17;11.57;;;9.90;53.60;;;;;;4978981;28;20098;-68
2024/01/11 12:35:25;;;;;;;21.48;12.60;;;9.90;53.30;;;;;;4978939;28;20030;-66